Time;durP1;ratioP1;P1;durP2;ratioP2;P2;SDS_P1;SDS_P2;PMS_P1;PMS_P2;Temp;Humidity;BMP_temperature;BMP_pressure;BME280_temperature;BME280_humidity;BME280_pressure;Samples;Min_cycle;Max_cycle;Signal;HPM_P1;HPM_P2
2023/07/26 00:01:48;;;;;;;;;;;;;;;;;;4915771;29;19969;-82
2023/07/26 00:04:14;;;;;;;;;;;;;;;;;;4920383;29;20261;-81
2023/07/26 00:06:40;;;;;;;;;;;;;;;;;;4920982;28;19930;-82
2023/07/26 00:09:08;;;;;;;;;;;;;;;;;;4920661;28;19924;-80
2023/07/26 00:11:33;;;;;;;;;;;;;;;;;;4959650;28;20466;-80
2023/07/26 00:13:59;;;;;;;;;;;;;;;;;;4900062;29;19934;-81
2023/07/26 00:16:25;;;;;;;;;;;;;;;;;;4920001;29;20429;-86
2023/07/26 00:18:52;;;;;;;;;;;;;;;;;;4907869;29;19930;-80
2023/07/26 00:21:18;;;;;;;;;;;;;;;;;;4920447;28;19926;-79
2023/07/26 00:23:44;;;;;;;;;;;;;;;;;;4923777;28;19973;-80
2023/07/26 00:26:10;;;;;;;;;;;;;;;;;;4931537;29;20014;-81
2023/07/26 00:28:35;;;;;;;;;;;;;;;;;;4931096;29;19927;-80
2023/07/26 00:31:01;;;;;;;;;;;;;;;;;;4916046;29;19923;-80
2023/07/26 00:33:27;;;;;;;;;;;;;;;;;;4915248;29;19967;-83
2023/07/26 00:35:53;;;;;;;;;;;;;;;;;;4931577;28;20376;-79
2023/07/26 00:38:19;;;;;;;;;;;;;;;;;;4914910;29;20017;-79
2023/07/26 00:40:45;;;;;;;;;;;;;;;;;;4915465;29;19930;-80
2023/07/26 00:43:11;;;;;;;;;;;;;;;;;;4930899;28;20021;-80
2023/07/26 00:45:37;;;;;;;;;;;;;;;;;;4915166;29;20029;-79
2023/07/26 00:48:03;;;;;;;;;;;;;;;;;;4934167;28;20328;-80
2023/07/26 00:50:29;;;;;;;;;;;;;;;;;;4929359;28;19927;-86
2023/07/26 00:52:55;;;;;;;;;;;;;;;;;;4929999;28;20283;-80
2023/07/26 00:55:21;;;;;;;;;;;;;;;;;;4930375;29;19946;-80
2023/07/26 00:57:47;;;;;;;;;;;;;;;;;;4930565;29;19930;-83
2023/07/26 01:00:13;;;;;;;;;;;;;;;;;;4915451;29;19927;-80
2023/07/26 01:02:39;;;;;;;;;;;;;;;;;;4914656;29;19922;-80
2023/07/26 01:05:05;;;;;;;;;;;;;;;;;;4930147;29;20033;-80
2023/07/26 01:07:31;;;;;;;;;;;;;;;;;;4930513;29;19977;-85
2023/07/26 01:09:57;;;;;;;;;;;;;;;;;;4931276;29;19987;-80
2023/07/26 01:12:23;;;;;;;;;;;;;;;;;;4933854;29;19969;-80
2023/07/26 01:14:49;;;;;;;;;;;;;;;;;;4915702;28;19967;-79
2023/07/26 01:17:15;;;;;;;;;;;;;;;;;;4915329;28;19937;-79
2023/07/26 01:19:41;;;;;;;;;;;;;;;;;;4898752;29;20387;-79
2023/07/26 01:22:07;;;;;;;;;;;;;;;;;;4914976;28;19923;-80
2023/07/26 01:24:33;;;;;;;;;;;;;;;;;;4914683;28;19930;-83
2023/07/26 01:26:59;;;;;;;;;;;;;;;;;;4914567;28;19930;-80
2023/07/26 01:29:25;;;;;;;;;;;;;;;;;;4899025;29;19930;-80
2023/07/26 01:31:51;;;;;;;;;;;;;;;;;;4898978;29;19923;-79
2023/07/26 01:34:17;;;;;;;;;;;;;;;;;;4914529;28;19930;-80
2023/07/26 01:36:43;;;;;;;;;;;;;;;;;;4898587;29;19974;-80
2023/07/26 01:39:09;;;;;;;;;;;;;;;;;;4929977;29;19927;-79
2023/07/26 01:41:35;;;;;;;;;;;;;;;;;;4914038;29;19926;-85
2023/07/26 01:44:01;;;;;;;;;;;;;;;;;;4930123;29;19929;-80
2023/07/26 01:46:27;;;;;;;;;;;;;;;;;;4914332;29;19927;-80
2023/07/26 01:48:53;;;;;;;;;;;;;;;;;;4913963;29;19930;-79
2023/07/26 01:51:19;;;;;;;;;;;;;;;;;;4914571;29;20390;-79
2023/07/26 01:53:45;;;;;;;;;;;;;;;;;;4930190;29;19945;-79
2023/07/26 01:56:11;;;;;;;;;;;;;;;;;;4930586;29;19977;-79
2023/07/26 01:58:37;;;;;;;;;;;;;;;;;;4930272;29;19927;-85
2023/07/26 02:01:03;;;;;;;;;;;;;;;;;;4930416;29;19989;-80
2023/07/26 02:03:29;;;;;;;;;;;;;;;;;;4932329;29;19923;-79
2023/07/26 02:05:55;;;;;;;;;;;;;;;;;;4996717;28;19923;-79
2023/07/26 02:08:21;;;;;;;;;;;;;;;;;;4914511;28;20368;-80
2023/07/26 02:10:47;;;;;;;;;;;;;;;;;;4915972;28;19926;-79
2023/07/26 02:13:13;;;;;;;;;;;;;;;;;;4933307;28;19965;-79
2023/07/26 02:15:39;;;;;;;;;;;;;;;;;;4916991;29;19930;-83
2023/07/26 02:18:05;;;;;;;;;;;;;;;;;;4917202;29;20284;-80
2023/07/26 02:20:32;;;;;;;;;;;;;;;;;;4933027;28;19990;-79
2023/07/26 02:22:58;;;;;;;;;;;;;;;;;;4932533;28;20376;-79
2023/07/26 02:25:24;;;;;;;;;;;;;;;;;;4932333;28;20008;-80
2023/07/26 02:27:50;;;;;;;;;;;;;;;;;;4916149;29;19930;-81
2023/07/26 02:30:16;;;;;;;;;;;;;;;;;;4932481;28;20028;-80
2023/07/26 02:32:42;;;;;;;;;;;;;;;;;;4930843;28;19929;-80
2023/07/26 02:35:08;;;;;;;;;;;;;;;;;;4913688;28;20419;-79
2023/07/26 02:37:34;;;;;;;;;;;;;;;;;;4929435;28;20018;-79
2023/07/26 02:40:00;;;;;;;;;;;;;;;;;;4931978;28;20494;-79
2023/07/26 02:42:27;;;;;;;;;;;;;;;;;;4932462;28;20264;-81
2023/07/26 02:44:53;;;;;;;;;;;;;;;;;;4916642;29;19927;-79
2023/07/26 02:47:19;;;;;;;;;;;;;;;;;;4932447;28;19923;-79
2023/07/26 02:49:45;;;;;;;;;;;;;;;;;;4916230;29;19937;-79
2023/07/26 02:52:11;;;;;;;;;;;;;;;;;;4932705;28;19929;-79
2023/07/26 02:54:36;;;;;;;;;;;;;;;;;;4914165;29;19980;-80
2023/07/26 02:57:02;;;;;;;;;;;;;;;;;;4913494;28;20514;-80
2023/07/26 02:59:28;;;;;;;;;;;;;;;;;;4913617;28;19923;-80
2023/07/26 03:01:54;;;;;;;;;;;;;;;;;;4897512;29;20053;-79
2023/07/26 03:04:20;;;;;;;;;;;;;;;;;;4929898;28;19923;-82
2023/07/26 03:06:46;;;;;;;;;;;;;;;;;;4916139;28;20002;-80
2023/07/26 03:09:12;;;;;;;;;;;;;;;;;;4913562;29;19937;-79
2023/07/26 03:11:38;;;;;;;;;;;;;;;;;;4929255;29;19923;-80
2023/07/26 03:14:04;;;;;;;;;;;;;;;;;;4928107;29;20446;-80
2023/07/26 03:16:30;;;;;;;;;;;;;;;;;;4910146;28;20368;-80
2023/07/26 03:18:56;;;;;;;;;;;;;;;;;;4912167;28;20308;-82
2023/07/26 03:21:22;;;;;;;;;;;;;;;;;;4897455;29;20439;-80
2023/07/26 03:23:48;;;;;;;;;;;;;;;;;;4897196;29;19994;-83
2023/07/26 03:26:14;;;;;;;;;;;;;;;;;;4913227;28;19927;-79
2023/07/26 03:28:40;;;;;;;;;;;;;;;;;;4913156;28;19923;-79
2023/07/26 03:31:06;;;;;;;;;;;;;;;;;;4923520;28;19923;-79
2023/07/26 03:33:32;;;;;;;;;;;;;;;;;;4915937;29;19923;-79
2023/07/26 03:35:57;;;;;;;;;;;;;;;;;;4915922;29;19930;-80
2023/07/26 03:38:23;;;;;;;;;;;;;;;;;;4918537;29;19927;-79
2023/07/26 03:40:49;;;;;;;;;;;;;;;;;;4950773;29;20402;-84
2023/07/26 03:43:15;;;;;;;;;;;;;;;;;;4951004;28;19922;-79
2023/07/26 03:45:41;;;;;;;;;;;;;;;;;;4938531;29;20012;-79
2023/07/26 03:48:07;;;;;;;;;;;;;;;;;;4937679;29;19999;-80
2023/07/26 03:50:33;;;;;;;;;;;;;;;;;;4954401;29;19934;-79
2023/07/26 03:52:59;;;;;;;;;;;;;;;;;;4942018;29;20021;-82
2023/07/26 03:55:25;;;;;;;;;;;;;;;;;;4931894;29;19923;-80
2023/07/26 03:57:51;;;;;;;;;;;;;;;;;;4931528;29;19923;-86
2023/07/26 04:00:17;;;;;;;;;;;;;;;;;;4915239;29;19930;-81
2023/07/26 04:02:43;;;;;;;;;;;;;;;;;;4899832;29;20021;-79
2023/07/26 04:05:09;;;;;;;;;;;;;;;;;;4898592;29;19985;-79
2023/07/26 04:07:35;;;;;;;;;;;;;;;;;;4930859;29;19923;-79
2023/07/26 04:10:01;;;;;;;;;;;;;;;;;;4915581;29;19927;-80
2023/07/26 04:12:27;;;;;;;;;;;;;;;;;;4915464;29;19927;-80
2023/07/26 04:14:53;;;;;;;;;;;;;;;;;;4915471;29;19969;-80
2023/07/26 04:17:19;;;;;;;;;;;;;;;;;;4900681;29;19923;-79
2023/07/26 04:19:44;;;;;;;;;;;;;;;;;;4930100;29;20322;-79
2023/07/26 04:22:10;;;;;;;;;;;;;;;;;;4946993;28;19945;-79
2023/07/26 04:24:36;;;;;;;;;;;;;;;;;;4947749;28;19923;-79
2023/07/26 04:27:02;;;;;;;;;;;;;;;;;;4947112;28;19969;-80
2023/07/26 04:29:28;;;;;;;;;;;;;;;;;;4947405;28;20284;-80
2023/07/26 04:31:54;;;;;;;;;;;;;;;;;;4947360;28;19923;-79
2023/07/26 04:34:20;;;;;;;;;;;;;;;;;;4946747;28;19978;-80
2023/07/26 04:36:46;;;;;;;;;;;;;;;;;;4947018;28;19923;-80
2023/07/26 04:39:12;;;;;;;;;;;;;;;;;;4945941;28;19945;-79
2023/07/26 04:41:38;;;;;;;;;;;;;;;;;;4946552;28;19923;-79
2023/07/26 04:44:04;;;;;;;;;;;;;;;;;;4938918;28;20264;-80
2023/07/26 04:46:30;;;;;;;;;;;;;;;;;;4980857;28;19923;-80
2023/07/26 04:48:56;;;;;;;;;;;;;;;;;;4996662;28;19923;-80
2023/07/26 04:51:23;;;;;;;;;;;;;;;;;;4917920;28;19927;-81
2023/07/26 04:53:49;;;;;;;;;;;;;;;;;;4917565;29;20272;-80
2023/07/26 04:56:16;;;;;;;;;;;;;;;;;;4932774;29;19923;-80
2023/07/26 04:58:42;;;;;;;;;;;;;;;;;;4917162;29;19922;-80
2023/07/26 05:01:08;;;;;;;;;;;;;;;;;;4932951;29;19930;-80
2023/07/26 05:03:35;;;;;;;;;;;;;;;;;;4932468;29;19923;-79
2023/07/26 05:06:01;;;;;;;;;;;;;;;;;;4932495;29;19974;-80
2023/07/26 05:08:28;;;;;;;;;;;;;;;;;;4917243;29;19989;-79
2023/07/26 05:10:54;;;;;;;;;;;;;;;;;;4932945;29;19922;-85
2023/07/26 05:13:21;;;;;;;;;;;;;;;;;;4932954;29;20267;-80
2023/07/26 05:15:47;;;;;;;;;;;;;;;;;;4932925;29;20364;-79
2023/07/26 05:18:16;;;;;;;;;;;;;;;;;;4931073;29;20005;-79
2023/07/26 05:20:42;;;;;;;;;;;;;;;;;;4929669;29;19966;-79
2023/07/26 05:23:08;;;;;;;;;;;;;;;;;;4913721;29;19923;-80
2023/07/26 05:25:34;;;;;;;;;;;;;;;;;;4914225;29;19930;-79
2023/07/26 05:28:00;;;;;;;;;;;;;;;;;;4929467;29;20431;-79
2023/07/26 05:30:26;;;;;;;;;;;;;;;;;;4908509;29;19926;-79
2023/07/26 05:32:52;;;;;;;;;;;;;;;;;;4929114;29;19923;-81
2023/07/26 05:35:18;;;;;;;;;;;;;;;;;;4928797;29;19934;-79
2023/07/26 05:37:44;;;;;;;;;;;;;;;;;;4912886;29;19934;-79
2023/07/26 05:40:10;;;;;;;;;;;;;;;;;;4873338;29;1163764;-80
2023/07/26 05:42:36;;;;;;;;;;;;;;;;;;4914246;29;19977;-79
2023/07/26 05:45:02;;;;;;;;;;;;;;;;;;4929984;29;19930;-79
2023/07/26 05:47:28;;;;;;;;;;;;;;;;;;4913754;29;19923;-80
2023/07/26 05:49:54;;;;;;;;;;;;;;;;;;4929892;29;19927;-79
2023/07/26 05:52:20;;;;;;;;;;;;;;;;;;4922466;29;20410;-82
2023/07/26 05:54:45;;;;;;;;;;;;;;;;;;4924812;28;20344;-79
2023/07/26 05:57:11;;;;;;;;;;;;;;;;;;4913219;28;20009;-80
2023/07/26 05:59:37;;;;;;;;;;;;;;;;;;4914299;28;20364;-79
2023/07/26 06:02:03;;;;;;;;;;;;;;;;;;4898311;29;19989;-79
2023/07/26 06:04:29;;;;;;;;;;;;;;;;;;4913869;28;19930;-79
2023/07/26 06:06:55;;;;;;;;;;;;;;;;;;4897696;29;20108;-79
2023/07/26 06:09:21;;;;;;;;;;;;;;;;;;4921296;28;20013;-79
2023/07/26 06:11:47;;;;;;;;;;;;;;;;;;4930528;28;19973;-79
2023/07/26 06:14:13;;;;;;;;;;;;;;;;;;4898380;29;19934;-79
2023/07/26 06:16:39;;;;;;;;;;;;;;;;;;4913248;29;20257;-80
2023/07/26 06:19:05;;;;;;;;;;;;;;;;;;4910388;29;19927;-78
2023/07/26 06:21:31;;;;;;;;;;;;;;;;;;4935507;29;20063;-77
2023/07/26 06:23:57;;;;;;;;;;;;;;;;;;4951323;29;19922;-82
2023/07/26 06:26:23;;;;;;;;;;;;;;;;;;4934927;29;19926;-80
2023/07/26 06:28:49;;;;;;;;;;;;;;;;;;4934823;29;20017;-79
2023/07/26 06:31:16;;;;;;;;;;;;;;;;;;4922775;28;20459;-76
2023/07/26 06:33:42;;;;;;;;;;;;;;;;;;4898830;28;19953;-76
2023/07/26 06:36:08;;;;;;;;;;;;;;;;;;4913079;29;20264;-76
2023/07/26 06:38:34;;;;;;;;;;;;;;;;;;4906449;29;19931;-76
2023/07/26 06:41:00;;;;;;;;;;;;;;;;;;4931044;28;20024;-75
2023/07/26 06:43:26;;;;;;;;;;;;;;;;;;4926141;28;20021;-77
2023/07/26 06:45:52;;;;;;;;;;;;;;;;;;4925282;29;20010;-75
2023/07/26 06:48:18;;;;;;;;;;;;;;;;;;4926350;28;20434;-76
2023/07/26 06:50:44;;;;;;;;;;;;;;;;;;4994095;28;20017;-77
2023/07/26 06:53:10;;;;;;;;;;;;;;;;;;4971393;28;20307;-76
2023/07/26 06:55:36;;;;;;;;;;;;;;;;;;4904425;29;19966;-78
2023/07/26 06:58:02;;;;;;;;;;;;;;;;;;4911604;28;19923;-77
2023/07/26 07:00:28;;;;;;;;;;;;;;;;;;4910772;28;19930;-76
2023/07/26 07:02:55;;;;;;;;;;;;;;;;;;4911007;28;19930;-77
2023/07/26 07:05:21;;;;;;;;;;;;;;;;;;4910768;28;19926;-76
2023/07/26 07:07:47;;;;;;;;;;;;;;;;;;4911327;28;19974;-76
2023/07/26 07:10:13;;;;;;;;;;;;;;;;;;4911139;28;19962;-77
2023/07/26 07:12:38;;;;;;;;;;;;;;;;;;4911323;28;19930;-76
2023/07/26 07:15:04;;;;;;;;;;;;;;;;;;4920340;28;19972;-76
2023/07/26 07:17:30;;;;;;;;;;;;;;;;;;4901056;29;19934;-78
2023/07/26 07:19:56;;;;;;;;;;;;;;;;;;4910234;29;20253;-72
2023/07/26 07:22:25;;;;;;;;;;;;;;;;;;4911137;29;19934;-71
2023/07/26 07:24:50;;;;;;;;;;;;;;;;;;4910764;29;20021;-71
2023/07/26 07:27:16;;;;;;;;;;;;;;;;;;4910520;28;20021;-73
2023/07/26 07:29:42;;;;;;;;;;;;;;;;;;4894481;29;19927;-79
2023/07/26 07:32:10;;;;;;;;;;;;;;;;;;4898380;29;19927;-85
2023/07/26 07:34:37;;;;;;;;;;;;;;;;;;4928147;28;19923;-81
2023/07/26 07:40:36;;;;;;;;;;;;;;;;;;4921397;28;19930;-80
2023/07/26 07:46:45;;;;;;;;;;;;;;;;;;4872286;29;19926;-79
2023/07/26 07:49:36;;;;;;;;;;;;;;;;;;4908053;29;19925;-79
2023/07/26 07:52:44;;;;;;;;;;;;;;;;;;4910006;29;19927;-78
2023/07/26 07:55:23;;;;;;;;;;;;;;;;;;4897441;28;19930;-78
2023/07/26 07:58:01;;;;;;;;;;;;;;;;;;4920423;28;19994;-78
2023/07/26 08:00:33;;;;;;;;;;;;;;;;;;4915199;28;20019;-77
2023/07/26 08:03:17;;;;;;;;;;;;;;;;;;4913046;29;19999;-81
2023/07/26 08:05:49;;;;;;;;;;;;;;;;;;4917912;28;19923;-76
2023/07/26 08:08:15;;;;;;;;;;;;;;;;;;4928336;28;19945;-78
2023/07/26 08:10:43;;;;;;;;;;;;;;;;;;4912128;28;19965;-77
2023/07/26 08:13:13;;;;;;;;;;;;;;;;;;4928074;28;19997;-78
2023/07/26 08:15:39;;;;;;;;;;;;;;;;;;4925578;28;20022;-79
2023/07/26 08:21:31;;;;;;;;;;;;;;;;;;4921955;28;19922;-79
2023/07/26 08:24:17;;;;;;;;;;;;;;;;;;4922079;29;19957;-80
2023/07/26 08:26:58;;;;;;;;;;;;;;;;;;4918364;28;19922;-78
2023/07/26 08:29:36;;;;;;;;;;;;;;;;;;4913733;29;19922;-78
2023/07/26 08:32:08;;;;;;;;;;;;;;;;;;4917740;29;20010;-78
2023/07/26 08:34:34;;;;;;;;;;;;;;;;;;4914715;29;19927;-79
2023/07/26 08:37:01;;;;;;;;;;;;;;;;;;4929557;29;20398;-79
2023/07/26 08:39:45;;;;;;;;;;;;;;;;;;4923582;29;19998;-79
2023/07/26 08:42:21;;;;;;;;;;;;;;;;;;4913396;28;19989;-78
2023/07/26 08:45:00;;;;;;;;;;;;;;;;;;4927538;28;19930;-78
2023/07/26 08:47:39;;;;;;;;;;;;;;;;;;4930444;28;20513;-79
2023/07/26 08:50:14;;;;;;;;;;;;;;;;;;4931151;28;19934;-79
2023/07/26 08:52:50;;;;;;;;;;;;;;;;;;4933496;29;19930;-79
2023/07/26 08:55:17;;;;;;;;;;;;;;;;;;4937612;28;19923;-81
2023/07/26 09:00:31;;;;;;;;;;;;;;;;;;4928789;29;19922;-79
2023/07/26 09:02:57;;;;;;;;;;;;;;;;;;4919951;28;19923;-77
2023/07/26 09:05:23;;;;;;;;;;;;;;;;;;4902747;28;19930;-76
2023/07/26 09:07:52;;;;;;;;;;;;;;;;;;4925058;28;20427;-76
2023/07/26 09:10:18;;;;;;;;;;;;;;;;;;4913712;29;20382;-77
2023/07/26 09:12:44;;;;;;;;;;;;;;;;;;4912376;29;20006;-76
2023/07/26 09:15:10;;;;;;;;;;;;;;;;;;4929045;29;19923;-76
2023/07/26 09:17:36;;;;;;;;;;;;;;;;;;4928196;29;19981;-78
2023/07/26 09:20:02;;;;;;;;;;;;;;;;;;4912410;29;20010;-74
2023/07/26 09:22:30;;;;;;;;;;;;;;;;;;4932671;29;19942;-77
2023/07/26 09:24:56;;;;;;;;;;;;;;;;;;4945467;28;19930;-78
2023/07/26 09:27:22;;;;;;;;;;;;;;;;;;4944255;28;19922;-80
2023/07/26 09:29:48;;;;;;;;;;;;;;;;;;4922890;29;19974;-77
2023/07/26 09:32:14;;;;;;;;;;;;;;;;;;4928772;29;19977;-75
2023/07/26 09:34:40;;;;;;;;;;;;;;;;;;4943026;28;19931;-76
2023/07/26 09:37:06;;;;;;;;;;;;;;;;;;4929837;28;20334;-75
2023/07/26 09:39:34;;;;;;;;;;;;;;;;;;4995196;28;19923;-75
2023/07/26 09:42:00;;;;;;;;;;;;;;;;;;4994694;28;20006;-75
2023/07/26 09:44:26;;;;;;;;;;;;;;;;;;4966753;28;19927;-81
2023/07/26 09:46:52;;;;;;;;;;;;;;;;;;4914662;28;19990;-75
2023/07/26 09:49:18;;;;;;;;;;;;;;;;;;4896020;29;19937;-75
2023/07/26 09:51:44;;;;;;;;;;;;;;;;;;4906340;29;20021;-76
2023/07/26 09:54:10;;;;;;;;;;;;;;;;;;4916314;28;20010;-75
2023/07/26 09:56:36;;;;;;;;;;;;;;;;;;4896511;29;19924;-76
2023/07/26 09:59:03;;;;;;;;;;;;;;;;;;4912426;28;19923;-78
2023/07/26 10:01:29;;;;;;;;;;;;;;;;;;4913308;28;19923;-79
2023/07/26 10:03:55;;;;;;;;;;;;;;;;;;4897449;29;19989;-78
2023/07/26 10:06:21;;;;;;;;;;;;;;;;;;4912507;28;19966;-77
2023/07/26 10:08:47;;;;;;;;;;;;;;;;;;4911674;28;19926;-76
2023/07/26 10:11:13;;;;;;;;;;;;;;;;;;4912360;28;19923;-77
2023/07/26 10:13:39;;;;;;;;;;;;;;;;;;4912002;28;19922;-75
2023/07/26 10:16:05;;;;;;;;;;;;;;;;;;4912376;28;20014;-78
2023/07/26 10:18:32;;;;;;;;;;;;;;;;;;4895547;29;20596;-75
2023/07/26 10:20:58;;;;;;;;;;;;;;;;;;4911363;29;19927;-79
2023/07/26 10:23:24;;;;;;;;;;;;;;;;;;4896582;29;20324;-77
2023/07/26 10:25:50;;;;;;;;;;;;;;;;;;4911727;29;20004;-78
2023/07/26 10:28:17;;;;;;;;;;;;;;;;;;4918977;29;19926;-78
2023/07/26 10:30:43;;;;;;;;;;;;;;;;;;4920270;29;19927;-78
2023/07/26 10:33:08;;;;;;;;;;;;;;;;;;4919366;29;19983;-77
2023/07/26 10:35:34;;;;;;;;;;;;;;;;;;4929406;28;19933;-77
2023/07/26 10:38:01;;;;;;;;;;;;;;;;;;4914794;29;19933;-77
2023/07/26 10:40:27;;;;;;;;;;;;;;;;;;4930503;28;19927;-76
2023/07/26 10:42:53;;;;;;;;;;;;;;;;;;4929462;28;20423;-76
2023/07/26 10:45:18;;;;;;;;;;;;;;;;;;4907459;29;19979;-76
2023/07/26 10:47:44;;;;;;;;;;;;;;;;;;4916820;28;19923;-76
2023/07/26 10:50:10;;;;;;;;;;;;;;;;;;4911304;28;19931;-76
2023/07/26 10:52:36;;;;;;;;;;;;;;;;;;4929271;28;19934;-76
2023/07/26 10:55:02;;;;;;;;;;;;;;;;;;4928499;28;19934;-75
2023/07/26 10:57:28;;;;;;;;;;;;;;;;;;4918065;28;20014;-76
2023/07/26 10:59:54;;;;;;;;;;;;;;;;;;4924645;28;20429;-78
2023/07/26 11:02:20;;;;;;;;;;;;;;;;;;4930516;28;20272;-76
2023/07/26 11:04:46;;;;;;;;;;;;;;;;;;4918227;28;20357;-75
2023/07/26 11:07:14;;;;;;;;;;;;;;;;;;4922165;29;20418;-74
2023/07/26 11:09:40;;;;;;;;;;;;;;;;;;4913789;28;19922;-75
2023/07/26 11:12:06;;;;;;;;;;;;;;;;;;4929661;28;19977;-74
2023/07/26 11:14:32;;;;;;;;;;;;;;;;;;4931085;28;19923;-79
2023/07/26 11:17:00;;;;;;;;;;;;;;;;;;4930048;28;19926;-75
2023/07/26 11:19:26;;;;;;;;;;;;;;;;;;4924971;28;19934;-79
2023/07/26 11:21:52;;;;;;;;;;;;;;;;;;4929327;28;19949;-76
2023/07/26 11:24:19;;;;;;;;;;;;;;;;;;4926069;28;19923;-76
2023/07/26 11:26:45;;;;;;;;;;;;;;;;;;4927574;28;19922;-77
2023/07/26 11:29:11;;;;;;;;;;;;;;;;;;4920851;28;19973;-77
2023/07/26 11:31:37;;;;;;;;;;;;;;;;;;4906768;29;19969;-77
2023/07/26 11:34:03;;;;;;;;;;;;;;;;;;4928292;28;20387;-76
2023/07/26 11:36:29;;;;;;;;;;;;;;;;;;4929049;28;19977;-77
2023/07/26 11:38:54;;;;;;;;;;;;;;;;;;4912715;28;20002;-74
2023/07/26 11:41:21;;;;;;;;;;;;;;;;;;4929371;28;19923;-74
2023/07/26 11:43:46;;;;;;;;;;;;;;;;;;4912942;28;19980;-74
2023/07/26 11:46:12;;;;;;;;;;;;;;;;;;4917201;28;19927;-74
2023/07/26 11:48:38;;;;;;;;;;;;;;;;;;4915770;28;19927;-75
2023/07/26 11:51:05;;;;;;;;;;;;;;;;;;4909000;29;19935;-76
2023/07/26 11:53:32;;;;;;;;;;;;;;;;;;4894028;29;20131;-75
2023/07/26 11:55:58;;;;;;;;;;;;;;;;;;4927366;28;19977;-75
2023/07/26 11:58:24;;;;;;;;;;;;;;;;;;4928914;28;19931;-75
2023/07/26 12:00:50;;;;;;;;;;;;;;;;;;4928499;28;19923;-76
2023/07/26 12:03:16;;;;;;;;;;;;;;;;;;4928186;28;19927;-76
2023/07/26 12:05:46;;;;;;;;;;;;;;;;;;4930159;28;19927;-75
2023/07/26 12:08:12;;;;;;;;;;;;;;;;;;4915243;28;19980;-76
2023/07/26 12:10:38;;;;;;;;;;;;;;;;;;4919948;28;19923;-78
2023/07/26 12:13:07;;;;;;;;;;;;;;;;;;4924225;28;19934;-74
2023/07/26 12:15:33;;;;;;;;;;;;;;;;;;4915510;28;19923;-74
2023/07/26 12:17:59;;;;;;;;;;;;;;;;;;4931617;28;20009;-74
2023/07/26 12:20:25;;;;;;;;;;;;;;;;;;4932151;28;19923;-75
2023/07/26 12:22:51;;;;;;;;;;;;;;;;;;4908202;28;20379;-76
2023/07/26 12:25:17;;;;;;;;;;;;;;;;;;4940654;28;19923;-74
2023/07/26 12:27:43;;;;;;;;;;;;;;;;;;4921197;29;19929;-74
2023/07/26 12:30:09;;;;;;;;;;;;;;;;;;4927489;28;20005;-75
2023/07/26 12:32:35;;;;;;;;;;;;;;;;;;4922299;28;20021;-75
2023/07/26 12:35:01;;;;;;;;;;;;;;;;;;4929597;28;19923;-75
2023/07/26 12:37:27;;;;;;;;;;;;;;;;;;4931883;28;20485;-76
2023/07/26 12:39:53;;;;;;;;;;;;;;;;;;4931588;28;19934;-76
2023/07/26 12:42:19;;;;;;;;;;;;;;;;;;4932168;28;20384;-76
2023/07/26 12:44:45;;;;;;;;;;;;;;;;;;4931368;28;19922;-74
2023/07/26 12:47:11;;;;;;;;;;;;;;;;;;4928926;28;19927;-76
2023/07/26 12:49:40;;;;;;;;;;;;;;;;;;4895986;29;19973;-74
2023/07/26 12:52:06;;;;;;;;;;;;;;;;;;4919116;29;20378;-76
2023/07/26 12:54:32;;;;;;;;;;;;;;;;;;4919382;28;19923;-76
2023/07/26 12:56:58;;;;;;;;;;;;;;;;;;4927440;28;20288;-76
2023/07/26 12:59:24;;;;;;;;;;;;;;;;;;4932039;28;19956;-76
2023/07/26 13:01:49;;;;;;;;;;;;;;;;;;4927593;28;19930;-76
2023/07/26 13:04:15;;;;;;;;;;;;;;;;;;4912844;28;20323;-76
2023/07/26 13:06:41;;;;;;;;;;;;;;;;;;4912587;28;19993;-76
2023/07/26 13:09:07;;;;;;;;;;;;;;;;;;4912579;28;19985;-76
2023/07/26 13:11:33;;;;;;;;;;;;;;;;;;4913357;29;20021;-77
2023/07/26 13:13:59;;;;;;;;;;;;;;;;;;4914606;29;19926;-76
2023/07/26 13:16:27;;;;;;;;;;;;;;;;;;4897297;29;19945;-76
2023/07/26 13:18:53;;;;;;;;;;;;;;;;;;4925466;28;19977;-76
2023/07/26 13:21:18;;;;;;;;;;;;;;;;;;4914491;29;19970;-76
2023/07/26 13:23:44;;;;;;;;;;;;;;;;;;4918310;29;19927;-76
2023/07/26 13:26:10;;;;;;;;;;;;;;;;;;4919704;28;19933;-76
2023/07/26 13:28:36;;;;;;;;;;;;;;;;;;4921424;29;19934;-76
2023/07/26 13:31:02;;;;;;;;;;;;;;;;;;4919959;29;20366;-75
2023/07/26 13:33:28;;;;;;;;;;;;;;;;;;4897545;29;19931;-76
2023/07/26 13:35:54;;;;;;;;;;;;;;;;;;4910964;29;19988;-76
2023/07/26 13:38:20;;;;;;;;;;;;;;;;;;4912792;29;20439;-75
2023/07/26 13:40:46;;;;;;;;;;;;;;;;;;4915054;29;20379;-75
2023/07/26 13:43:13;;;;;;;;;;;;;;;;;;4918390;28;19923;-75
2023/07/26 13:45:39;;;;;;;;;;;;;;;;;;4930745;28;20021;-78
2023/07/26 13:48:05;;;;;;;;;;;;;;;;;;4921431;28;20014;-81
2023/07/26 13:50:30;;;;;;;;;;;;;;;;;;4905936;29;19933;-76
2023/07/26 13:52:57;;;;;;;;;;;;;;;;;;4931218;29;20375;-74
2023/07/26 13:55:23;;;;;;;;;;;;;;;;;;4931674;29;20330;-76
2023/07/26 13:57:49;;;;;;;;;;;;;;;;;;4930947;29;19933;-77
2023/07/26 14:00:14;;;;;;;;;;;;;;;;;;4923627;29;20363;-76
2023/07/26 14:02:41;;;;;;;;;;;;;;;;;;4912497;28;19994;-77
2023/07/26 14:05:07;;;;;;;;;;;;;;;;;;4910958;28;19930;-76
2023/07/26 14:07:33;;;;;;;;;;;;;;;;;;4912127;28;19923;-76
2023/07/26 14:09:59;;;;;;;;;;;;;;;;;;4930844;28;19923;-75
2023/07/26 14:12:25;;;;;;;;;;;;;;;;;;4930909;28;19981;-75
2023/07/26 14:14:51;;;;;;;;;;;;;;;;;;4931158;28;19992;-76
2023/07/26 14:17:17;;;;;;;;;;;;;;;;;;4930773;28;20375;-76
2023/07/26 14:19:43;;;;;;;;;;;;;;;;;;4927744;28;19933;-76
2023/07/26 14:22:08;;;;;;;;;;;;;;;;;;4929086;28;19934;-76
2023/07/26 14:24:34;;;;;;;;;;;;;;;;;;4900361;29;20356;-74
2023/07/26 14:27:00;;;;;;;;;;;;;;;;;;4910443;28;19927;-75
2023/07/26 14:29:26;;;;;;;;;;;;;;;;;;4917274;28;19938;-74
2023/07/26 14:31:53;;;;;;;;;;;;;;;;;;4896474;29;19927;-74
2023/07/26 14:34:19;;;;;;;;;;;;;;;;;;4910735;28;19974;-77
2023/07/26 14:36:45;;;;;;;;;;;;;;;;;;4914117;28;20323;-74
2023/07/26 14:39:11;;;;;;;;;;;;;;;;;;4895699;29;19929;-77
2023/07/26 14:41:37;;;;;;;;;;;;;;;;;;4900217;29;19922;-74
2023/07/26 14:44:03;;;;;;;;;;;;;;;;;;4915406;28;19926;-74
2023/07/26 14:46:28;;;;;;;;;;;;;;;;;;4914871;29;19929;-73
2023/07/26 14:48:54;;;;;;;;;;;;;;;;;;4919766;28;19927;-73
2023/07/26 14:51:20;;;;;;;;;;;;;;;;;;4919896;28;19966;-73
2023/07/26 14:53:46;;;;;;;;;;;;;;;;;;4909559;28;20368;-73
2023/07/26 14:56:12;;;;;;;;;;;;;;;;;;4913878;28;20295;-74
2023/07/26 14:58:38;;;;;;;;;;;;;;;;;;4930300;28;19934;-74
2023/07/26 15:01:04;;;;;;;;;;;;;;;;;;4930493;28;19931;-74
2023/07/26 15:03:30;;;;;;;;;;;;;;;;;;4918939;29;20024;-74
2023/07/26 15:05:56;;;;;;;;;;;;;;;;;;4911146;28;20380;-74
2023/07/26 15:08:22;;;;;;;;;;;;;;;;;;4925947;28;19934;-73
2023/07/26 15:10:48;;;;;;;;;;;;;;;;;;4930991;28;20383;-73
2023/07/26 15:13:14;;;;;;;;;;;;;;;;;;4925981;29;19938;-75
2023/07/26 15:15:43;;;;;;;;;;;;;;;;;;4922483;28;19923;-72
2023/07/26 15:18:09;;;;;;;;;;;;;;;;;;4929509;28;19973;-72
2023/07/26 15:20:35;;;;;;;;;;;;;;;;;;4929307;28;20023;-72
2023/07/26 15:23:01;;;;;;;;;;;;;;;;;;4930185;28;19927;-71
2023/07/26 15:25:26;;;;;;;;;;;;;;;;;;4929531;28;19931;-68
2023/07/26 15:27:52;;;;;;;;;;;;;;;;;;4914693;29;19927;-72
2023/07/26 15:30:18;;;;;;;;;;;;;;;;;;4922720;28;19931;-74
2023/07/26 15:32:44;;;;;;;;;;;;;;;;;;4920680;28;19931;-69
2023/07/26 15:35:13;;;;;;;;;;;;;;;;;;4930275;28;20383;-73
2023/07/26 15:37:39;;;;;;;;;;;;;;;;;;4930481;28;19992;-73
2023/07/26 15:40:05;;;;;;;;;;;;;;;;;;4931396;28;20372;-73
2023/07/26 15:42:31;;;;;;;;;;;;;;;;;;4933723;29;20407;-73
2023/07/26 15:44:57;;;;;;;;;;;;;;;;;;4930791;28;19977;-74
2023/07/26 15:47:23;;;;;;;;;;;;;;;;;;4918297;28;19918;-72
2023/07/26 15:49:49;;;;;;;;;;;;;;;;;;4923050;29;20372;-72
2023/07/26 15:52:17;;;;;;;;;;;;;;;;;;4913219;28;19950;-71
2023/07/26 15:54:43;;;;;;;;;;;;;;;;;;4914517;29;19923;-71
2023/07/26 15:57:09;;;;;;;;;;;;;;;;;;4921671;28;19922;-72
2023/07/26 15:59:35;;;;;;;;;;;;;;;;;;4920754;28;19954;-75
2023/07/26 16:02:01;;;;;;;;;;;;;;;;;;4920124;28;19930;-84
2023/07/26 16:04:27;;;;;;;;;;;;;;;;;;4931963;28;20006;-82
2023/07/26 16:06:53;;;;;;;;;;;;;;;;;;4932961;28;19923;-83
2023/07/26 16:09:21;;;;;;;;;;;;;;;;;;4908896;28;19966;-83
2023/07/26 16:11:47;;;;;;;;;;;;;;;;;;4916313;28;20442;-85
2023/07/26 16:14:13;;;;;;;;;;;;;;;;;;4907848;28;19923;-85
2023/07/26 16:16:39;;;;;;;;;;;;;;;;;;4929011;29;19973;-84
2023/07/26 16:19:05;;;;;;;;;;;;;;;;;;4931569;28;19923;-84
2023/07/26 16:21:31;;;;;;;;;;;;;;;;;;4907384;28;19923;-73
2023/07/26 16:23:57;;;;;;;;;;;;;;;;;;4920444;28;20380;-75
2023/07/26 16:26:23;;;;;;;;;;;;;;;;;;4920417;29;20310;-74
2023/07/26 16:28:49;;;;;;;;;;;;;;;;;;4922475;28;19930;-74
2023/07/26 16:31:15;;;;;;;;;;;;;;;;;;4914915;28;20002;-74
2023/07/26 16:33:41;;;;;;;;;;;;;;;;;;4913480;28;19924;-74
2023/07/26 16:36:07;;;;;;;;;;;;;;;;;;4915037;29;20065;-74
2023/07/26 16:38:33;;;;;;;;;;;;;;;;;;4920332;29;20284;-74
2023/07/26 16:40:59;;;;;;;;;;;;;;;;;;4918260;29;20020;-76
2023/07/26 16:43:24;;;;;;;;;;;;;;;;;;4931137;28;19931;-67
2023/07/26 16:45:50;;;;;;;;;;;;;;;;;;4933297;28;19930;-69
2023/07/26 16:48:16;;;;;;;;;;;;;;;;;;4924760;28;20018;-66
2023/07/26 16:50:42;;;;;;;;;;;;;;;;;;4916624;28;19981;-66
2023/07/26 16:53:08;;;;;;;;;;;;;;;;;;4919238;28;20368;-77
2023/07/26 16:55:34;;;;;;;;;;;;;;;;;;4932071;28;19931;-76